sensor_id;sensor_type;location;lat;lon;timestamp;P1;durP1;ratioP1;P2;durP2;ratioP2
27706;SDS011;36332;51.384;0.040;2022-10-13T00:01:15;15.68;;;3.88;;
27706;SDS011;36332;51.384;0.040;2022-10-13T00:03:45;11.85;;;2.92;;
27706;SDS011;36332;51.384;0.040;2022-10-13T00:06:20;11.20;;;3.22;;
27706;SDS011;36332;51.384;0.040;2022-10-13T00:08:50;5.25;;;2.10;;
27706;SDS011;36332;51.384;0.040;2022-10-13T00:11:27;13.15;;;2.60;;
27706;SDS011;36332;51.384;0.040;2022-10-13T00:13:58;7.78;;;2.80;;
27706;SDS011;36332;51.384;0.040;2022-10-13T00:16:28;6.97;;;2.65;;
27706;SDS011;36332;51.384;0.040;2022-10-13T00:18:57;15.38;;;2.97;;
27706;SDS011;36332;51.384;0.040;2022-10-13T00:21:25;7.40;;;2.42;;
27706;SDS011;36332;51.384;0.040;2022-10-13T00:23:53;6.70;;;2.40;;
27706;SDS011;36332;51.384;0.040;2022-10-13T00:26:22;12.15;;;2.33;;
27706;SDS011;36332;51.384;0.040;2022-10-13T00:28:50;6.47;;;2.17;;
27706;SDS011;36332;51.384;0.040;2022-10-13T00:31:21;6.22;;;2.92;;
27706;SDS011;36332;51.384;0.040;2022-10-13T00:33:49;6.20;;;2.08;;
27706;SDS011;36332;51.384;0.040;2022-10-13T00:36:17;7.60;;;2.10;;
27706;SDS011;36332;51.384;0.040;2022-10-13T00:38:46;9.38;;;2.35;;
27706;SDS011;36332;51.384;0.040;2022-10-13T00:41:13;10.05;;;2.42;;
27706;SDS011;36332;51.384;0.040;2022-10-13T00:43:55;5.90;;;2.13;;
27706;SDS011;36332;51.384;0.040;2022-10-13T00:46:28;6.18;;;2.10;;
27706;SDS011;36332;51.384;0.040;2022-10-13T00:49:00;6.88;;;1.92;;
27706;SDS011;36332;51.384;0.040;2022-10-13T00:51:46;11.65;;;2.75;;
27706;SDS011;36332;51.384;0.040;2022-10-13T00:54:18;4.93;;;2.50;;
27706;SDS011;36332;51.384;0.040;2022-10-13T00:56:49;7.15;;;2.40;;
27706;SDS011;36332;51.384;0.040;2022-10-13T00:59:19;6.30;;;2.35;;
27706;SDS011;36332;51.384;0.040;2022-10-13T01:01:53;9.13;;;2.90;;
27706;SDS011;36332;51.384;0.040;2022-10-13T01:04:22;9.18;;;2.33;;
27706;SDS011;36332;51.384;0.040;2022-10-13T01:06:53;7.00;;;3.08;;
27706;SDS011;36332;51.384;0.040;2022-10-13T01:09:21;8.00;;;1.95;;
27706;SDS011;36332;51.384;0.040;2022-10-13T01:14:43;8.88;;;2.40;;
27706;SDS011;36332;51.384;0.040;2022-10-13T01:17:27;9.10;;;2.35;;
27706;SDS011;36332;51.384;0.040;2022-10-13T01:23:29;5.18;;;2.22;;
27706;SDS011;36332;51.384;0.040;2022-10-13T01:26:31;5.50;;;1.88;;
27706;SDS011;36332;51.384;0.040;2022-10-13T01:37:20;7.18;;;2.75;;
27706;SDS011;36332;51.384;0.040;2022-10-13T01:45:08;5.60;;;1.50;;
27706;SDS011;36332;51.384;0.040;2022-10-13T01:47:38;7.05;;;2.00;;
27706;SDS011;36332;51.384;0.040;2022-10-13T01:50:07;5.90;;;1.70;;
27706;SDS011;36332;51.384;0.040;2022-10-13T01:52:37;3.67;;;2.72;;
27706;SDS011;36332;51.384;0.040;2022-10-13T01:55:06;8.25;;;2.05;;
27706;SDS011;36332;51.384;0.040;2022-10-13T01:57:38;7.40;;;2.30;;
27706;SDS011;36332;51.384;0.040;2022-10-13T02:00:08;3.47;;;1.98;;
27706;SDS011;36332;51.384;0.040;2022-10-13T02:05:44;1.88;;;1.63;;
27706;SDS011;36332;51.384;0.040;2022-10-13T02:08:23;3.38;;;1.98;;
27706;SDS011;36332;51.384;0.040;2022-10-13T02:13:36;1.85;;;1.42;;
27706;SDS011;36332;51.384;0.040;2022-10-13T02:16:08;2.83;;;1.80;;
27706;SDS011;36332;51.384;0.040;2022-10-13T02:18:36;6.88;;;2.75;;
27706;SDS011;36332;51.384;0.040;2022-10-13T02:21:04;5.95;;;1.70;;
27706;SDS011;36332;51.384;0.040;2022-10-13T02:23:32;3.92;;;2.00;;
27706;SDS011;36332;51.384;0.040;2022-10-13T02:26:00;2.78;;;1.88;;
27706;SDS011;36332;51.384;0.040;2022-10-13T02:28:28;6.22;;;2.83;;
27706;SDS011;36332;51.384;0.040;2022-10-13T02:30:56;5.05;;;2.10;;
27706;SDS011;36332;51.384;0.040;2022-10-13T02:33:23;3.03;;;2.03;;
27706;SDS011;36332;51.384;0.040;2022-10-13T02:35:51;3.78;;;2.15;;
27706;SDS011;36332;51.384;0.040;2022-10-13T02:38:19;4.22;;;2.17;;
27706;SDS011;36332;51.384;0.040;2022-10-13T02:40:46;3.58;;;2.20;;
27706;SDS011;36332;51.384;0.040;2022-10-13T02:43:14;6.18;;;2.10;;
27706;SDS011;36332;51.384;0.040;2022-10-13T02:45:42;7.55;;;2.95;;
27706;SDS011;36332;51.384;0.040;2022-10-13T02:48:10;4.35;;;2.17;;
27706;SDS011;36332;51.384;0.040;2022-10-13T02:50:37;3.30;;;2.38;;
27706;SDS011;36332;51.384;0.040;2022-10-13T02:53:05;5.90;;;2.10;;
27706;SDS011;36332;51.384;0.040;2022-10-13T02:55:33;5.65;;;2.30;;
27706;SDS011;36332;51.384;0.040;2022-10-13T02:58:00;4.07;;;2.42;;
27706;SDS011;36332;51.384;0.040;2022-10-13T03:00:28;6.93;;;2.72;;
27706;SDS011;36332;51.384;0.040;2022-10-13T03:02:56;4.40;;;2.40;;
27706;SDS011;36332;51.384;0.040;2022-10-13T03:05:24;5.53;;;2.72;;
27706;SDS011;36332;51.384;0.040;2022-10-13T03:07:51;5.07;;;2.78;;
27706;SDS011;36332;51.384;0.040;2022-10-13T03:10:19;8.10;;;2.88;;
27706;SDS011;36332;51.384;0.040;2022-10-13T03:12:49;6.75;;;2.95;;
27706;SDS011;36332;51.384;0.040;2022-10-13T03:15:17;6.30;;;3.20;;
27706;SDS011;36332;51.384;0.040;2022-10-13T03:17:47;6.63;;;2.70;;
27706;SDS011;36332;51.384;0.040;2022-10-13T03:20:15;5.70;;;3.58;;
27706;SDS011;36332;51.384;0.040;2022-10-13T03:22:43;7.20;;;2.97;;
27706;SDS011;36332;51.384;0.040;2022-10-13T03:25:15;4.93;;;3.85;;
27706;SDS011;36332;51.384;0.040;2022-10-13T03:27:43;11.20;;;3.80;;
27706;SDS011;36332;51.384;0.040;2022-10-13T03:30:11;5.63;;;3.22;;
27706;SDS011;36332;51.384;0.040;2022-10-13T03:32:39;6.90;;;3.55;;
27706;SDS011;36332;51.384;0.040;2022-10-13T03:35:06;6.90;;;3.45;;
27706;SDS011;36332;51.384;0.040;2022-10-13T03:37:34;9.43;;;3.28;;
27706;SDS011;36332;51.384;0.040;2022-10-13T03:40:02;6.43;;;3.60;;
27706;SDS011;36332;51.384;0.040;2022-10-13T03:42:30;8.98;;;4.45;;
27706;SDS011;36332;51.384;0.040;2022-10-13T03:44:58;7.85;;;3.50;;
27706;SDS011;36332;51.384;0.040;2022-10-13T03:47:25;7.93;;;3.33;;
27706;SDS011;36332;51.384;0.040;2022-10-13T03:49:54;9.38;;;3.28;;
27706;SDS011;36332;51.384;0.040;2022-10-13T03:52:21;8.38;;;4.43;;
27706;SDS011;36332;51.384;0.040;2022-10-13T03:54:49;6.75;;;3.92;;
27706;SDS011;36332;51.384;0.040;2022-10-13T03:57:17;7.30;;;4.40;;
27706;SDS011;36332;51.384;0.040;2022-10-13T03:59:45;8.23;;;4.70;;
27706;SDS011;36332;51.384;0.040;2022-10-13T04:02:12;6.95;;;3.97;;
27706;SDS011;36332;51.384;0.040;2022-10-13T04:04:40;11.23;;;4.78;;
27706;SDS011;36332;51.384;0.040;2022-10-13T04:07:07;9.95;;;3.92;;
27706;SDS011;36332;51.384;0.040;2022-10-13T04:09:35;6.22;;;4.25;;
27706;SDS011;36332;51.384;0.040;2022-10-13T04:12:02;6.22;;;4.18;;
27706;SDS011;36332;51.384;0.040;2022-10-13T04:14:30;7.40;;;4.50;;
27706;SDS011;36332;51.384;0.040;2022-10-13T04:17:06;13.85;;;4.82;;
27706;SDS011;36332;51.384;0.040;2022-10-13T04:19:34;11.77;;;4.85;;
27706;SDS011;36332;51.384;0.040;2022-10-13T04:22:04;11.68;;;4.80;;
27706;SDS011;36332;51.384;0.040;2022-10-13T04:24:33;13.35;;;5.18;;
27706;SDS011;36332;51.384;0.040;2022-10-13T04:27:00;8.02;;;4.90;;
27706;SDS011;36332;51.384;0.040;2022-10-13T04:29:28;7.15;;;5.25;;
27706;SDS011;36332;51.384;0.040;2022-10-13T04:31:58;8.23;;;4.80;;
27706;SDS011;36332;51.384;0.040;2022-10-13T04:34:25;14.00;;;5.75;;
27706;SDS011;36332;51.384;0.040;2022-10-13T04:36:53;10.40;;;5.95;;
27706;SDS011;36332;51.384;0.040;2022-10-13T04:39:21;8.32;;;5.35;;
27706;SDS011;36332;51.384;0.040;2022-10-13T04:41:49;8.70;;;5.40;;
27706;SDS011;36332;51.384;0.040;2022-10-13T04:44:17;11.20;;;5.60;;
27706;SDS011;36332;51.384;0.040;2022-10-13T04:46:45;12.75;;;5.88;;
27706;SDS011;36332;51.384;0.040;2022-10-13T04:49:12;10.50;;;6.40;;
27706;SDS011;36332;51.384;0.040;2022-10-13T04:51:41;11.88;;;6.38;;
27706;SDS011;36332;51.384;0.040;2022-10-13T04:54:09;12.07;;;6.75;;
27706;SDS011;36332;51.384;0.040;2022-10-13T04:56:36;14.38;;;7.18;;
27706;SDS011;36332;51.384;0.040;2022-10-13T04:59:04;12.57;;;5.97;;
27706;SDS011;36332;51.384;0.040;2022-10-13T05:01:32;10.57;;;6.72;;
27706;SDS011;36332;51.384;0.040;2022-10-13T05:04:00;15.80;;;7.63;;
27706;SDS011;36332;51.384;0.040;2022-10-13T05:06:36;13.90;;;7.40;;
27706;SDS011;36332;51.384;0.040;2022-10-13T05:09:26;15.30;;;7.65;;
27706;SDS011;36332;51.384;0.040;2022-10-13T05:11:54;17.98;;;8.00;;
27706;SDS011;36332;51.384;0.040;2022-10-13T05:14:22;14.20;;;8.50;;
27706;SDS011;36332;51.384;0.040;2022-10-13T05:16:50;24.17;;;8.40;;
27706;SDS011;36332;51.384;0.040;2022-10-13T05:19:17;12.98;;;7.85;;
27706;SDS011;36332;51.384;0.040;2022-10-13T05:21:48;14.35;;;8.32;;
27706;SDS011;36332;51.384;0.040;2022-10-13T05:24:15;15.10;;;8.07;;
27706;SDS011;36332;51.384;0.040;2022-10-13T05:26:47;14.57;;;8.75;;
27706;SDS011;36332;51.384;0.040;2022-10-13T05:29:15;16.13;;;9.23;;
27706;SDS011;36332;51.384;0.040;2022-10-13T05:31:44;11.40;;;8.20;;
27706;SDS011;36332;51.384;0.040;2022-10-13T05:34:11;20.13;;;8.55;;
27706;SDS011;36332;51.384;0.040;2022-10-13T05:36:39;16.15;;;9.45;;
27706;SDS011;36332;51.384;0.040;2022-10-13T05:39:08;14.40;;;9.07;;
27706;SDS011;36332;51.384;0.040;2022-10-13T05:41:36;18.80;;;8.80;;
27706;SDS011;36332;51.384;0.040;2022-10-13T05:44:12;17.85;;;10.15;;
27706;SDS011;36332;51.384;0.040;2022-10-13T05:46:52;19.73;;;10.07;;
27706;SDS011;36332;51.384;0.040;2022-10-13T05:49:20;18.35;;;10.70;;
27706;SDS011;36332;51.384;0.040;2022-10-13T05:51:49;22.35;;;9.98;;
27706;SDS011;36332;51.384;0.040;2022-10-13T05:57:07;20.38;;;11.25;;
27706;SDS011;36332;51.384;0.040;2022-10-13T05:59:59;18.23;;;10.30;;
27706;SDS011;36332;51.384;0.040;2022-10-13T06:02:43;18.73;;;11.43;;
27706;SDS011;36332;51.384;0.040;2022-10-13T06:05:21;21.52;;;10.65;;
27706;SDS011;36332;51.384;0.040;2022-10-13T06:07:52;21.23;;;11.90;;
27706;SDS011;36332;51.384;0.040;2022-10-13T06:10:21;22.70;;;12.75;;
27706;SDS011;36332;51.384;0.040;2022-10-13T06:12:49;20.75;;;11.88;;
27706;SDS011;36332;51.384;0.040;2022-10-13T06:15:17;22.05;;;12.00;;
27706;SDS011;36332;51.384;0.040;2022-10-13T06:17:48;20.75;;;12.27;;
27706;SDS011;36332;51.384;0.040;2022-10-13T06:20:15;23.73;;;13.23;;
27706;SDS011;36332;51.384;0.040;2022-10-13T06:22:43;26.05;;;13.40;;
27706;SDS011;36332;51.384;0.040;2022-10-13T06:25:12;25.50;;;13.15;;
27706;SDS011;36332;51.384;0.040;2022-10-13T06:27:40;28.30;;;13.13;;
27706;SDS011;36332;51.384;0.040;2022-10-13T06:30:07;23.80;;;12.80;;
27706;SDS011;36332;51.384;0.040;2022-10-13T06:32:36;27.25;;;14.43;;
27706;SDS011;36332;51.384;0.040;2022-10-13T06:35:03;22.92;;;13.07;;
27706;SDS011;36332;51.384;0.040;2022-10-13T06:37:32;22.98;;;12.38;;
27706;SDS011;36332;51.384;0.040;2022-10-13T06:39:59;24.88;;;12.65;;
27706;SDS011;36332;51.384;0.040;2022-10-13T06:42:27;24.45;;;13.35;;
27706;SDS011;36332;51.384;0.040;2022-10-13T06:45:08;20.95;;;11.93;;
27706;SDS011;36332;51.384;0.040;2022-10-13T06:47:39;28.65;;;14.27;;
27706;SDS011;36332;51.384;0.040;2022-10-13T06:50:07;25.52;;;14.15;;
27706;SDS011;36332;51.384;0.040;2022-10-13T06:52:34;24.02;;;13.43;;
27706;SDS011;36332;51.384;0.040;2022-10-13T06:55:02;26.88;;;15.25;;
27706;SDS011;36332;51.384;0.040;2022-10-13T06:57:31;29.52;;;13.90;;
27706;SDS011;36332;51.384;0.040;2022-10-13T07:00:03;24.45;;;13.63;;
27706;SDS011;36332;51.384;0.040;2022-10-13T07:02:32;22.80;;;13.10;;
27706;SDS011;36332;51.384;0.040;2022-10-13T07:05:00;27.17;;;13.75;;
27706;SDS011;36332;51.384;0.040;2022-10-13T07:07:28;26.08;;;14.23;;
27706;SDS011;36332;51.384;0.040;2022-10-13T07:09:56;23.27;;;13.32;;
27706;SDS011;36332;51.384;0.040;2022-10-13T07:12:23;24.95;;;14.25;;
27706;SDS011;36332;51.384;0.040;2022-10-13T07:14:51;25.83;;;14.10;;
27706;SDS011;36332;51.384;0.040;2022-10-13T07:17:19;26.85;;;14.35;;
27706;SDS011;36332;51.384;0.040;2022-10-13T07:19:47;23.40;;;13.13;;
27706;SDS011;36332;51.384;0.040;2022-10-13T07:22:15;26.63;;;13.48;;
27706;SDS011;36332;51.384;0.040;2022-10-13T07:24:43;23.90;;;12.98;;
27706;SDS011;36332;51.384;0.040;2022-10-13T07:27:11;24.40;;;13.43;;
27706;SDS011;36332;51.384;0.040;2022-10-13T07:29:38;28.33;;;14.77;;
27706;SDS011;36332;51.384;0.040;2022-10-13T07:32:06;32.05;;;14.75;;
27706;SDS011;36332;51.384;0.040;2022-10-13T07:34:34;30.38;;;16.02;;
27706;SDS011;36332;51.384;0.040;2022-10-13T07:37:02;30.63;;;15.05;;
27706;SDS011;36332;51.384;0.040;2022-10-13T07:39:31;33.70;;;15.63;;
27706;SDS011;36332;51.384;0.040;2022-10-13T07:41:59;32.03;;;14.80;;
27706;SDS011;36332;51.384;0.040;2022-10-13T07:44:26;27.88;;;15.20;;
27706;SDS011;36332;51.384;0.040;2022-10-13T07:46:54;28.38;;;16.35;;
27706;SDS011;36332;51.384;0.040;2022-10-13T07:49:22;30.90;;;16.33;;
27706;SDS011;36332;51.384;0.040;2022-10-13T07:51:50;29.83;;;16.02;;
27706;SDS011;36332;51.384;0.040;2022-10-13T07:54:18;33.92;;;16.63;;
27706;SDS011;36332;51.384;0.040;2022-10-13T07:56:52;37.75;;;17.48;;
27706;SDS011;36332;51.384;0.040;2022-10-13T07:59:21;29.08;;;17.50;;
27706;SDS011;36332;51.384;0.040;2022-10-13T08:01:49;34.75;;;17.80;;
27706;SDS011;36332;51.384;0.040;2022-10-13T08:04:16;29.83;;;16.55;;
27706;SDS011;36332;51.384;0.040;2022-10-13T08:06:44;31.48;;;17.70;;
27706;SDS011;36332;51.384;0.040;2022-10-13T08:09:12;30.88;;;16.70;;
27706;SDS011;36332;51.384;0.040;2022-10-13T08:11:40;34.35;;;17.00;;
27706;SDS011;36332;51.384;0.040;2022-10-13T08:14:08;35.20;;;18.63;;
27706;SDS011;36332;51.384;0.040;2022-10-13T08:16:37;33.00;;;19.45;;
27706;SDS011;36332;51.384;0.040;2022-10-13T08:19:08;37.22;;;18.05;;
27706;SDS011;36332;51.384;0.040;2022-10-13T08:21:35;28.83;;;17.63;;
27706;SDS011;36332;51.384;0.040;2022-10-13T08:24:24;31.20;;;17.48;;
27706;SDS011;36332;51.384;0.040;2022-10-13T08:26:52;31.38;;;15.60;;
27706;SDS011;36332;51.384;0.040;2022-10-13T08:29:20;27.17;;;15.32;;
27706;SDS011;36332;51.384;0.040;2022-10-13T08:31:50;22.13;;;14.27;;
27706;SDS011;36332;51.384;0.040;2022-10-13T08:34:20;21.45;;;14.13;;
27706;SDS011;36332;51.384;0.040;2022-10-13T08:36:49;19.08;;;12.82;;
27706;SDS011;36332;51.384;0.040;2022-10-13T08:39:20;22.80;;;14.50;;
27706;SDS011;36332;51.384;0.040;2022-10-13T08:41:48;17.65;;;11.43;;
27706;SDS011;36332;51.384;0.040;2022-10-13T08:44:20;18.42;;;11.68;;
27706;SDS011;36332;51.384;0.040;2022-10-13T08:47:36;18.40;;;11.50;;
27706;SDS011;36332;51.384;0.040;2022-10-13T08:50:10;16.52;;;9.35;;
27706;SDS011;36332;51.384;0.040;2022-10-13T08:52:46;16.77;;;10.35;;
27706;SDS011;36332;51.384;0.040;2022-10-13T08:55:20;19.20;;;10.23;;
27706;SDS011;36332;51.384;0.040;2022-10-13T08:58:07;14.75;;;9.95;;
27706;SDS011;36332;51.384;0.040;2022-10-13T09:00:44;13.63;;;9.10;;
27706;SDS011;36332;51.384;0.040;2022-10-13T09:08:20;9.15;;;7.07;;
27706;SDS011;36332;51.384;0.040;2022-10-13T09:10:49;11.07;;;8.30;;
27706;SDS011;36332;51.384;0.040;2022-10-13T09:13:18;16.27;;;9.50;;
27706;SDS011;36332;51.384;0.040;2022-10-13T09:15:47;15.95;;;8.50;;
27706;SDS011;36332;51.384;0.040;2022-10-13T09:18:18;12.35;;;6.68;;
27706;SDS011;36332;51.384;0.040;2022-10-13T09:23:51;8.65;;;6.13;;
27706;SDS011;36332;51.384;0.040;2022-10-13T09:26:22;8.68;;;6.70;;
27706;SDS011;36332;51.384;0.040;2022-10-13T09:28:50;9.15;;;6.32;;
27706;SDS011;36332;51.384;0.040;2022-10-13T09:31:26;10.38;;;6.22;;
27706;SDS011;36332;51.384;0.040;2022-10-13T09:36:26;9.43;;;5.20;;
27706;SDS011;36332;51.384;0.040;2022-10-13T09:39:14;5.30;;;4.18;;
27706;SDS011;36332;51.384;0.040;2022-10-13T09:41:43;9.98;;;5.05;;
27706;SDS011;36332;51.384;0.040;2022-10-13T09:44:12;9.18;;;4.10;;
27706;SDS011;36332;51.384;0.040;2022-10-13T09:46:48;7.97;;;4.55;;
27706;SDS011;36332;51.384;0.040;2022-10-13T09:57:05;6.65;;;3.33;;
27706;SDS011;36332;51.384;0.040;2022-10-13T10:00:16;7.18;;;3.90;;
27706;SDS011;36332;51.384;0.040;2022-10-13T10:02:52;11.43;;;5.75;;
27706;SDS011;36332;51.384;0.040;2022-10-13T10:10:41;13.60;;;4.00;;
27706;SDS011;36332;51.384;0.040;2022-10-13T10:13:12;8.73;;;3.25;;
27706;SDS011;36332;51.384;0.040;2022-10-13T10:21:45;11.50;;;5.00;;
27706;SDS011;36332;51.384;0.040;2022-10-13T10:27:10;7.03;;;4.38;;
27706;SDS011;36332;51.384;0.040;2022-10-13T10:29:51;8.32;;;4.65;;
27706;SDS011;36332;51.384;0.040;2022-10-13T10:40:57;4.45;;;2.13;;
27706;SDS011;36332;51.384;0.040;2022-10-13T10:46:02;5.88;;;3.00;;
27706;SDS011;36332;51.384;0.040;2022-10-13T10:48:38;6.28;;;3.25;;
27706;SDS011;36332;51.384;0.040;2022-10-13T10:51:06;9.43;;;4.43;;
27706;SDS011;36332;51.384;0.040;2022-10-13T11:01:36;11.15;;;3.42;;
27706;SDS011;36332;51.384;0.040;2022-10-13T11:07:10;5.90;;;2.35;;
27706;SDS011;36332;51.384;0.040;2022-10-13T11:17:28;5.38;;;2.30;;
27706;SDS011;36332;51.384;0.040;2022-10-13T11:19:57;7.40;;;3.10;;
27706;SDS011;36332;51.384;0.040;2022-10-13T11:22:26;4.10;;;2.28;;
27706;SDS011;36332;51.384;0.040;2022-10-13T11:34:00;6.97;;;2.80;;
27706;SDS011;36332;51.384;0.040;2022-10-13T11:39:01;2.30;;;2.08;;
27706;SDS011;36332;51.384;0.040;2022-10-13T11:41:40;9.40;;;2.38;;
27706;SDS011;36332;51.384;0.040;2022-10-13T11:44:34;5.35;;;2.58;;
27706;SDS011;36332;51.384;0.040;2022-10-13T11:58:31;14.30;;;2.80;;
27706;SDS011;36332;51.384;0.040;2022-10-13T12:01:00;6.78;;;2.25;;
27706;SDS011;36332;51.384;0.040;2022-10-13T12:06:05;4.97;;;2.45;;
27706;SDS011;36332;51.384;0.040;2022-10-13T12:08:49;3.15;;;2.28;;
27706;SDS011;36332;51.384;0.040;2022-10-13T12:11:24;3.90;;;2.47;;
27706;SDS011;36332;51.384;0.040;2022-10-13T12:13:57;8.85;;;3.03;;
27706;SDS011;36332;51.384;0.040;2022-10-13T12:16:26;5.00;;;2.72;;
27706;SDS011;36332;51.384;0.040;2022-10-13T12:21:50;5.20;;;3.10;;
27706;SDS011;36332;51.384;0.040;2022-10-13T12:24:24;4.65;;;2.58;;
27706;SDS011;36332;51.384;0.040;2022-10-13T12:26:53;4.82;;;2.10;;
27706;SDS011;36332;51.384;0.040;2022-10-13T12:29:23;3.97;;;2.30;;
27706;SDS011;36332;51.384;0.040;2022-10-13T12:31:53;5.22;;;2.30;;
27706;SDS011;36332;51.384;0.040;2022-10-13T12:34:25;5.00;;;2.58;;
27706;SDS011;36332;51.384;0.040;2022-10-13T12:37:01;3.40;;;2.22;;
27706;SDS011;36332;51.384;0.040;2022-10-13T12:39:39;3.45;;;2.10;;
27706;SDS011;36332;51.384;0.040;2022-10-13T12:42:08;5.88;;;2.85;;
27706;SDS011;36332;51.384;0.040;2022-10-13T12:44:39;5.28;;;2.13;;
27706;SDS011;36332;51.384;0.040;2022-10-13T12:47:34;5.28;;;2.13;;
27706;SDS011;36332;51.384;0.040;2022-10-13T12:58:26;8.90;;;2.20;;
27706;SDS011;36332;51.384;0.040;2022-10-13T13:03:26;7.72;;;2.30;;
27706;SDS011;36332;51.384;0.040;2022-10-13T13:08:41;4.32;;;1.92;;
27706;SDS011;36332;51.384;0.040;2022-10-13T13:11:19;4.10;;;1.98;;
27706;SDS011;36332;51.384;0.040;2022-10-13T13:13:48;5.30;;;1.70;;
27706;SDS011;36332;51.384;0.040;2022-10-13T13:16:17;6.88;;;1.80;;
27706;SDS011;36332;51.384;0.040;2022-10-13T13:18:49;6.28;;;2.15;;
27706;SDS011;36332;51.384;0.040;2022-10-13T13:21:18;4.53;;;2.78;;
27706;SDS011;36332;51.384;0.040;2022-10-13T13:23:46;7.15;;;2.10;;
27706;SDS011;36332;51.384;0.040;2022-10-13T13:26:20;5.63;;;3.20;;
27706;SDS011;36332;51.384;0.040;2022-10-13T13:28:50;9.63;;;3.00;;
27706;SDS011;36332;51.384;0.040;2022-10-13T13:31:20;9.82;;;2.45;;
27706;SDS011;36332;51.384;0.040;2022-10-13T13:33:51;7.13;;;2.80;;
27706;SDS011;36332;51.384;0.040;2022-10-13T13:36:20;32.08;;;6.50;;
27706;SDS011;36332;51.384;0.040;2022-10-13T13:38:51;5.75;;;2.88;;
27706;SDS011;36332;51.384;0.040;2022-10-13T13:41:19;12.90;;;2.63;;
27706;SDS011;36332;51.384;0.040;2022-10-13T13:43:48;11.85;;;3.42;;
27706;SDS011;36332;51.384;0.040;2022-10-13T13:46:16;10.75;;;3.13;;
27706;SDS011;36332;51.384;0.040;2022-10-13T13:48:47;5.72;;;2.65;;
27706;SDS011;36332;51.384;0.040;2022-10-13T13:51:15;6.05;;;2.70;;
27706;SDS011;36332;51.384;0.040;2022-10-13T13:53:44;7.82;;;2.95;;
27706;SDS011;36332;51.384;0.040;2022-10-13T13:56:17;9.63;;;3.15;;
27706;SDS011;36332;51.384;0.040;2022-10-13T13:58:46;9.85;;;2.80;;
27706;SDS011;36332;51.384;0.040;2022-10-13T14:01:13;6.55;;;3.13;;
27706;SDS011;36332;51.384;0.040;2022-10-13T14:03:42;9.65;;;3.30;;
27706;SDS011;36332;51.384;0.040;2022-10-13T14:06:17;5.13;;;2.50;;
27706;SDS011;36332;51.384;0.040;2022-10-13T14:08:45;9.80;;;4.53;;
27706;SDS011;36332;51.384;0.040;2022-10-13T14:11:14;6.57;;;2.88;;
27706;SDS011;36332;51.384;0.040;2022-10-13T14:13:42;6.75;;;3.67;;
27706;SDS011;36332;51.384;0.040;2022-10-13T14:16:14;5.97;;;3.30;;
27706;SDS011;36332;51.384;0.040;2022-10-13T14:18:43;8.80;;;3.75;;
27706;SDS011;36332;51.384;0.040;2022-10-13T14:21:11;8.38;;;3.45;;
27706;SDS011;36332;51.384;0.040;2022-10-13T14:23:39;7.15;;;2.50;;
27706;SDS011;36332;51.384;0.040;2022-10-13T14:26:11;9.60;;;2.53;;
27706;SDS011;36332;51.384;0.040;2022-10-13T14:28:40;6.05;;;2.53;;
27706;SDS011;36332;51.384;0.040;2022-10-13T14:31:08;7.40;;;2.92;;
27706;SDS011;36332;51.384;0.040;2022-10-13T14:33:36;4.72;;;2.80;;
27706;SDS011;36332;51.384;0.040;2022-10-13T14:36:05;6.95;;;2.67;;
27706;SDS011;36332;51.384;0.040;2022-10-13T14:38:33;3.45;;;1.67;;
27706;SDS011;36332;51.384;0.040;2022-10-13T14:41:03;5.28;;;1.63;;
27706;SDS011;36332;51.384;0.040;2022-10-13T14:43:31;2.67;;;1.60;;
27706;SDS011;36332;51.384;0.040;2022-10-13T14:46:00;6.93;;;3.40;;
27706;SDS011;36332;51.384;0.040;2022-10-13T14:48:29;4.55;;;2.50;;
27706;SDS011;36332;51.384;0.040;2022-10-13T14:50:57;2.25;;;1.30;;
27706;SDS011;36332;51.384;0.040;2022-10-13T14:53:26;3.45;;;1.70;;
27706;SDS011;36332;51.384;0.040;2022-10-13T14:55:54;3.63;;;1.50;;
27706;SDS011;36332;51.384;0.040;2022-10-13T14:58:21;4.20;;;1.92;;
27706;SDS011;36332;51.384;0.040;2022-10-13T15:00:49;2.45;;;1.33;;
27706;SDS011;36332;51.384;0.040;2022-10-13T15:03:19;3.70;;;2.03;;
27706;SDS011;36332;51.384;0.040;2022-10-13T15:05:47;5.45;;;1.70;;
27706;SDS011;36332;51.384;0.040;2022-10-13T15:08:16;3.30;;;1.70;;
27706;SDS011;36332;51.384;0.040;2022-10-13T15:10:44;6.25;;;2.28;;
27706;SDS011;36332;51.384;0.040;2022-10-13T15:13:12;6.25;;;2.50;;
27706;SDS011;36332;51.384;0.040;2022-10-13T15:15:46;3.47;;;1.92;;
27706;SDS011;36332;51.384;0.040;2022-10-13T15:18:14;9.02;;;2.75;;
27706;SDS011;36332;51.384;0.040;2022-10-13T15:20:48;4.82;;;2.40;;
27706;SDS011;36332;51.384;0.040;2022-10-13T15:23:15;2.45;;;1.73;;
27706;SDS011;36332;51.384;0.040;2022-10-13T15:26:17;7.05;;;2.83;;
27706;SDS011;36332;51.384;0.040;2022-10-13T15:28:39;4.55;;;2.63;;
27706;SDS011;36332;51.384;0.040;2022-10-13T15:31:09;5.22;;;2.83;;
27706;SDS011;36332;51.384;0.040;2022-10-13T15:33:41;6.03;;;2.38;;
27706;SDS011;36332;51.384;0.040;2022-10-13T15:36:10;5.55;;;2.53;;
27706;SDS011;36332;51.384;0.040;2022-10-13T15:38:38;11.20;;;3.05;;
27706;SDS011;36332;51.384;0.040;2022-10-13T15:41:06;6.10;;;4.13;;
27706;SDS011;36332;51.384;0.040;2022-10-13T15:43:34;6.55;;;3.40;;
27706;SDS011;36332;51.384;0.040;2022-10-13T15:46:12;4.20;;;2.63;;
27706;SDS011;36332;51.384;0.040;2022-10-13T15:48:50;8.10;;;3.65;;
27706;SDS011;36332;51.384;0.040;2022-10-13T15:51:19;4.75;;;2.85;;
27706;SDS011;36332;51.384;0.040;2022-10-13T15:53:49;6.47;;;3.25;;
27706;SDS011;36332;51.384;0.040;2022-10-13T15:56:17;7.25;;;2.92;;
27706;SDS011;36332;51.384;0.040;2022-10-13T15:58:44;3.65;;;2.38;;
27706;SDS011;36332;51.384;0.040;2022-10-13T16:01:12;7.82;;;3.45;;
27706;SDS011;36332;51.384;0.040;2022-10-13T16:03:41;5.97;;;3.83;;
27706;SDS011;36332;51.384;0.040;2022-10-13T16:06:10;9.00;;;3.50;;
27706;SDS011;36332;51.384;0.040;2022-10-13T16:08:40;5.07;;;3.10;;
27706;SDS011;36332;51.384;0.040;2022-10-13T16:11:10;9.52;;;3.38;;
27706;SDS011;36332;51.384;0.040;2022-10-13T16:13:40;9.25;;;3.90;;
27706;SDS011;36332;51.384;0.040;2022-10-13T16:16:11;5.30;;;2.60;;
27706;SDS011;36332;51.384;0.040;2022-10-13T16:18:39;4.10;;;2.47;;
27706;SDS011;36332;51.384;0.040;2022-10-13T16:21:11;5.90;;;2.20;;
27706;SDS011;36332;51.384;0.040;2022-10-13T16:23:45;6.30;;;2.92;;
27706;SDS011;36332;51.384;0.040;2022-10-13T16:26:13;4.22;;;3.33;;
27706;SDS011;36332;51.384;0.040;2022-10-13T16:28:43;9.25;;;4.70;;
27706;SDS011;36332;51.384;0.040;2022-10-13T16:31:12;10.13;;;4.85;;
27706;SDS011;36332;51.384;0.040;2022-10-13T16:33:41;9.68;;;4.28;;
27706;SDS011;36332;51.384;0.040;2022-10-13T16:36:11;11.27;;;4.68;;
27706;SDS011;36332;51.384;0.040;2022-10-13T16:38:41;7.15;;;3.47;;
27706;SDS011;36332;51.384;0.040;2022-10-13T16:41:13;8.15;;;3.92;;
27706;SDS011;36332;51.384;0.040;2022-10-13T16:43:43;9.57;;;3.88;;
27706;SDS011;36332;51.384;0.040;2022-10-13T16:46:12;14.30;;;8.15;;
27706;SDS011;36332;51.384;0.040;2022-10-13T16:48:41;15.90;;;9.88;;
27706;SDS011;36332;51.384;0.040;2022-10-13T16:51:11;11.85;;;6.82;;
27706;SDS011;36332;51.384;0.040;2022-10-13T16:56:15;11.63;;;4.82;;
27706;SDS011;36332;51.384;0.040;2022-10-13T16:58:48;10.30;;;4.57;;
27706;SDS011;36332;51.384;0.040;2022-10-13T17:01:16;7.32;;;4.68;;
27706;SDS011;36332;51.384;0.040;2022-10-13T17:03:45;7.13;;;4.30;;
27706;SDS011;36332;51.384;0.040;2022-10-13T17:06:13;10.07;;;4.35;;
27706;SDS011;36332;51.384;0.040;2022-10-13T17:08:42;11.75;;;4.35;;
27706;SDS011;36332;51.384;0.040;2022-10-13T17:11:20;17.73;;;9.07;;
27706;SDS011;36332;51.384;0.040;2022-10-13T17:13:55;11.82;;;6.47;;
27706;SDS011;36332;51.384;0.040;2022-10-13T17:16:23;10.32;;;5.38;;